Aeroporto :
LOGIN :

Iscrizione | Disclaimer

   EN    FR    IT 

 










Sommario :    VFR   VFR Marginale   IFR   IFR Intensivo   IFR Molto Intensivo
Visibilità : 
Base nubi : 
>= 8 km
>= 3000ft
5 / 8 km
1000 / 3000 ft
1500m / 5 km
500 / 1000 ft
800 / 1500m
200 / 500 ft
< 800m
< 200 ft
Simboli :   Temporali  Nebbia  Neve Forte  Precipitazioni Forti  Vento > 20 kt
SIGMETs :   Varie  Temporali  Ghiacco  Turbolenza  Onda orograficha  Ceneri Vulcaniche






- Altitudine del aeroporto : 1895 ft


LSMM - Meiringen

ULTIMO METAR :
  • 191550Z AUTO VRB02KT 8000NDV -RA FEW003 SCT020 BKN025 15/15 Q1019 RMK

METARs OBSOLETI :
  • 191520Z AUTO 25004KT 210V340 8000NDV -RA FEW003 BKN020 OVC023 15/15 Q1019 RMK
  • 191450Z AUTO 24005KT 220V290 5000NDV -RA FEW007 BKN022 OVC027 15/15 Q1019 RMK
  • 191420Z AUTO 24004KT 190V270 9000NDV -RA SCT006 BKN026 OVC049 15/15 Q1019 RMK
  • 191350Z AUTO 00000KT 9999NDV -RA FEW007 SCT029 OVC051 15/15 Q1019 RMK
  • 191320Z AUTO VRB01KT 9000NDV -RA FEW004 SCT009 BKN036 15/15 Q1019 RERA RMK

Previsioni scadute.



MetMap, La meteo Aeronautica in un colpo d'occhio ! - Copyright ORBIFLY Dicembre 2007 - Disclaimer

ORBIFLY MET'MAP TEAM :

Programmazione e sviluppo : Alexandra Zaïnal
Concezione : Baudouin d'Aumeries
Supporto tecnico e logistico : Manuel Goepfert
Aiuto : Marc-Olivier Méhu
Aiuto per la traduzione : Arnaldo La Scala




FONTI E CREDITI :

   NOAA